Terminal Aerodrome Forecast
Issued by NWS

Home | Current Version | Previous Version | Text Only | Print | Product List | Glossary On
Versions: 1 2 3 4 5 6 7 8 9 10 11 12 13 14 15 16 17 18
410
FTUS46 KSEW 241727
TAFPAE
TAF
KPAE 241727Z 2418/2518 VRB03KT P6SM VCFG FEW005 SCT050 BKN200
     FM241900 33004KT P6SM SCT050 SCT120 BKN200
     FM250200 VRB03KT P6SM BKN120 OVC200
     FM250900 VRB03KT P6SM SCT050 OVC100
     FM251200 17005KT P6SM SCT007 BKN050 OVC100
      TEMPO 2514/2518 BKN007 OVC050=

USA.gov is the U.S. government's official web portal to all federal, state and local government web resources and services.